sensor_id;sensor_type;location;lat;lon;timestamp;P1;durP1;ratioP1;P2;durP2;ratioP2
26858;SDS011;14429;48.346;16.338;2023-07-13T00:00:21;1.13;;;0.98;;
26858;SDS011;14429;48.346;16.338;2023-07-13T00:02:46;3.00;;;1.15;;
26858;SDS011;14429;48.346;16.338;2023-07-13T00:05:13;6.25;;;0.98;;
26858;SDS011;14429;48.346;16.338;2023-07-13T00:07:39;1.30;;;1.02;;
26858;SDS011;14429;48.346;16.338;2023-07-13T00:10:04;1.25;;;1.00;;
26858;SDS011;14429;48.346;16.338;2023-07-13T00:12:31;1.23;;;1.10;;
26858;SDS011;14429;48.346;16.338;2023-07-13T00:15:00;2.08;;;1.20;;
26858;SDS011;14429;48.346;16.338;2023-07-13T00:17:27;1.17;;;1.05;;
26858;SDS011;14429;48.346;16.338;2023-07-13T00:19:53;1.52;;;1.05;;
26858;SDS011;14429;48.346;16.338;2023-07-13T00:22:21;2.20;;;1.58;;
26858;SDS011;14429;48.346;16.338;2023-07-13T00:24:47;2.63;;;1.20;;
26858;SDS011;14429;48.346;16.338;2023-07-13T00:27:12;1.00;;;0.90;;
26858;SDS011;14429;48.346;16.338;2023-07-13T00:29:39;1.33;;;0.80;;
26858;SDS011;14429;48.346;16.338;2023-07-13T00:32:04;2.42;;;1.30;;
26858;SDS011;14429;48.346;16.338;2023-07-13T00:34:31;1.23;;;1.05;;
26858;SDS011;14429;48.346;16.338;2023-07-13T00:36:57;1.65;;;1.10;;
26858;SDS011;14429;48.346;16.338;2023-07-13T00:39:24;1.73;;;1.10;;
26858;SDS011;14429;48.346;16.338;2023-07-13T00:41:50;1.58;;;1.23;;
26858;SDS011;14429;48.346;16.338;2023-07-13T00:44:16;4.13;;;1.30;;
26858;SDS011;14429;48.346;16.338;2023-07-13T00:46:43;1.63;;;0.98;;
26858;SDS011;14429;48.346;16.338;2023-07-13T00:49:10;1.75;;;1.25;;
26858;SDS011;14429;48.346;16.338;2023-07-13T00:51:39;1.45;;;1.10;;
26858;SDS011;14429;48.346;16.338;2023-07-13T00:54:09;1.35;;;1.05;;
26858;SDS011;14429;48.346;16.338;2023-07-13T00:56:38;1.25;;;0.82;;
26858;SDS011;14429;48.346;16.338;2023-07-13T00:59:05;1.13;;;0.93;;
26858;SDS011;14429;48.346;16.338;2023-07-13T01:01:33;1.80;;;0.70;;
26858;SDS011;14429;48.346;16.338;2023-07-13T01:03:58;1.48;;;1.20;;
26858;SDS011;14429;48.346;16.338;2023-07-13T01:06:24;0.70;;;0.70;;
26858;SDS011;14429;48.346;16.338;2023-07-13T01:08:50;1.42;;;1.10;;
26858;SDS011;14429;48.346;16.338;2023-07-13T01:11:18;1.75;;;0.90;;
26858;SDS011;14429;48.346;16.338;2023-07-13T01:13:46;1.15;;;1.00;;
26858;SDS011;14429;48.346;16.338;2023-07-13T01:16:13;1.35;;;0.82;;
26858;SDS011;14429;48.346;16.338;2023-07-13T01:18:43;1.10;;;1.00;;
26858;SDS011;14429;48.346;16.338;2023-07-13T01:21:10;1.45;;;1.10;;
26858;SDS011;14429;48.346;16.338;2023-07-13T01:23:35;3.40;;;1.17;;
26858;SDS011;14429;48.346;16.338;2023-07-13T01:26:01;1.63;;;1.05;;
26858;SDS011;14429;48.346;16.338;2023-07-13T01:28:27;1.35;;;0.95;;
26858;SDS011;14429;48.346;16.338;2023-07-13T01:30:53;1.05;;;0.80;;
26858;SDS011;14429;48.346;16.338;2023-07-13T01:33:20;1.40;;;0.93;;
26858;SDS011;14429;48.346;16.338;2023-07-13T01:35:46;1.25;;;1.10;;
26858;SDS011;14429;48.346;16.338;2023-07-13T01:38:13;0.90;;;0.80;;
26858;SDS011;14429;48.346;16.338;2023-07-13T01:40:40;1.13;;;1.02;;
26858;SDS011;14429;48.346;16.338;2023-07-13T01:43:05;5.10;;;0.90;;
26858;SDS011;14429;48.346;16.338;2023-07-13T01:45:31;1.80;;;1.20;;
26858;SDS011;14429;48.346;16.338;2023-07-13T01:47:57;1.13;;;1.00;;
26858;SDS011;14429;48.346;16.338;2023-07-13T01:50:22;1.08;;;0.90;;
26858;SDS011;14429;48.346;16.338;2023-07-13T01:52:48;3.50;;;1.10;;
26858;SDS011;14429;48.346;16.338;2023-07-13T01:55:15;1.08;;;0.80;;
26858;SDS011;14429;48.346;16.338;2023-07-13T01:57:40;1.60;;;0.85;;
26858;SDS011;14429;48.346;16.338;2023-07-13T02:00:06;0.80;;;0.75;;
26858;SDS011;14429;48.346;16.338;2023-07-13T02:02:34;2.72;;;1.13;;
26858;SDS011;14429;48.346;16.338;2023-07-13T02:04:59;1.33;;;1.08;;
26858;SDS011;14429;48.346;16.338;2023-07-13T02:07:25;1.33;;;0.93;;
26858;SDS011;14429;48.346;16.338;2023-07-13T02:09:50;2.65;;;1.23;;
26858;SDS011;14429;48.346;16.338;2023-07-13T02:12:17;1.50;;;0.85;;
26858;SDS011;14429;48.346;16.338;2023-07-13T02:14:42;0.93;;;0.80;;
26858;SDS011;14429;48.346;16.338;2023-07-13T02:17:09;1.05;;;0.80;;
26858;SDS011;14429;48.346;16.338;2023-07-13T02:19:35;1.63;;;0.88;;
26858;SDS011;14429;48.346;16.338;2023-07-13T02:22:00;0.95;;;0.85;;
26858;SDS011;14429;48.346;16.338;2023-07-13T02:24:26;1.40;;;1.10;;
26858;SDS011;14429;48.346;16.338;2023-07-13T02:26:51;1.35;;;1.00;;
26858;SDS011;14429;48.346;16.338;2023-07-13T02:29:18;2.33;;;1.10;;
26858;SDS011;14429;48.346;16.338;2023-07-13T02:31:43;4.07;;;1.55;;
26858;SDS011;14429;48.346;16.338;2023-07-13T02:34:09;1.58;;;1.30;;
26858;SDS011;14429;48.346;16.338;2023-07-13T02:36:34;1.67;;;0.80;;
26858;SDS011;14429;48.346;16.338;2023-07-13T02:39:00;2.47;;;1.10;;
26858;SDS011;14429;48.346;16.338;2023-07-13T02:41:27;3.05;;;1.00;;
26858;SDS011;14429;48.346;16.338;2023-07-13T02:43:53;4.82;;;1.00;;
26858;SDS011;14429;48.346;16.338;2023-07-13T02:46:20;1.30;;;0.93;;
26858;SDS011;14429;48.346;16.338;2023-07-13T02:48:45;1.77;;;1.20;;
26858;SDS011;14429;48.346;16.338;2023-07-13T02:51:11;1.77;;;1.05;;
26858;SDS011;14429;48.346;16.338;2023-07-13T02:53:36;1.75;;;1.35;;
26858;SDS011;14429;48.346;16.338;2023-07-13T02:56:02;1.45;;;1.13;;
26858;SDS011;14429;48.346;16.338;2023-07-13T02:58:28;1.95;;;0.88;;
26858;SDS011;14429;48.346;16.338;2023-07-13T03:00:55;3.88;;;1.10;;
26858;SDS011;14429;48.346;16.338;2023-07-13T03:03:22;2.08;;;1.00;;
26858;SDS011;14429;48.346;16.338;2023-07-13T03:05:48;1.38;;;1.13;;
26858;SDS011;14429;48.346;16.338;2023-07-13T03:08:22;1.83;;;0.98;;
26858;SDS011;14429;48.346;16.338;2023-07-13T03:10:47;2.47;;;1.05;;
26858;SDS011;14429;48.346;16.338;2023-07-13T03:13:13;1.00;;;0.90;;
26858;SDS011;14429;48.346;16.338;2023-07-13T03:15:38;2.65;;;1.05;;
26858;SDS011;14429;48.346;16.338;2023-07-13T03:18:04;1.25;;;1.00;;
26858;SDS011;14429;48.346;16.338;2023-07-13T03:20:33;1.10;;;1.00;;
26858;SDS011;14429;48.346;16.338;2023-07-13T03:22:58;2.25;;;1.10;;
26858;SDS011;14429;48.346;16.338;2023-07-13T03:25:24;2.47;;;1.30;;
26858;SDS011;14429;48.346;16.338;2023-07-13T03:27:49;1.65;;;1.10;;
26858;SDS011;14429;48.346;16.338;2023-07-13T03:30:14;1.15;;;0.93;;
26858;SDS011;14429;48.346;16.338;2023-07-13T03:32:40;2.13;;;1.23;;
26858;SDS011;14429;48.346;16.338;2023-07-13T03:35:06;0.80;;;0.80;;
26858;SDS011;14429;48.346;16.338;2023-07-13T03:37:33;2.47;;;0.98;;
26858;SDS011;14429;48.346;16.338;2023-07-13T03:39:58;1.45;;;0.90;;
26858;SDS011;14429;48.346;16.338;2023-07-13T03:42:24;2.72;;;1.30;;
26858;SDS011;14429;48.346;16.338;2023-07-13T03:44:49;1.25;;;1.10;;
26858;SDS011;14429;48.346;16.338;2023-07-13T03:47:14;2.00;;;1.13;;
26858;SDS011;14429;48.346;16.338;2023-07-13T03:49:40;1.50;;;1.02;;
26858;SDS011;14429;48.346;16.338;2023-07-13T03:52:06;3.88;;;1.55;;
26858;SDS011;14429;48.346;16.338;2023-07-13T03:54:32;1.85;;;1.38;;
26858;SDS011;14429;48.346;16.338;2023-07-13T03:56:58;1.75;;;1.08;;
26858;SDS011;14429;48.346;16.338;2023-07-13T03:59:23;2.40;;;1.13;;
26858;SDS011;14429;48.346;16.338;2023-07-13T04:01:49;0.80;;;0.80;;
26858;SDS011;14429;48.346;16.338;2023-07-13T04:04:14;2.53;;;1.20;;
26858;SDS011;14429;48.346;16.338;2023-07-13T04:06:39;2.20;;;1.05;;
26858;SDS011;14429;48.346;16.338;2023-07-13T04:09:05;2.38;;;1.42;;
26858;SDS011;14429;48.346;16.338;2023-07-13T04:11:32;2.90;;;1.65;;
26858;SDS011;14429;48.346;16.338;2023-07-13T04:13:57;3.33;;;1.15;;
26858;SDS011;14429;48.346;16.338;2023-07-13T04:16:23;1.70;;;1.50;;
26858;SDS011;14429;48.346;16.338;2023-07-13T04:18:49;2.00;;;1.40;;
26858;SDS011;14429;48.346;16.338;2023-07-13T04:21:15;2.30;;;1.25;;
26858;SDS011;14429;48.346;16.338;2023-07-13T04:23:41;2.70;;;1.30;;
26858;SDS011;14429;48.346;16.338;2023-07-13T04:26:07;1.63;;;1.10;;
26858;SDS011;14429;48.346;16.338;2023-07-13T04:28:34;2.80;;;0.98;;
26858;SDS011;14429;48.346;16.338;2023-07-13T04:31:00;2.10;;;1.10;;
26858;SDS011;14429;48.346;16.338;2023-07-13T04:33:26;1.67;;;1.00;;
26858;SDS011;14429;48.346;16.338;2023-07-13T04:35:52;1.20;;;0.80;;
26858;SDS011;14429;48.346;16.338;2023-07-13T04:38:18;1.77;;;0.93;;
26858;SDS011;14429;48.346;16.338;2023-07-13T04:40:44;2.95;;;1.33;;
26858;SDS011;14429;48.346;16.338;2023-07-13T04:43:10;1.70;;;1.08;;
26858;SDS011;14429;48.346;16.338;2023-07-13T04:45:37;1.13;;;1.02;;
26858;SDS011;14429;48.346;16.338;2023-07-13T04:48:02;1.83;;;1.45;;
26858;SDS011;14429;48.346;16.338;2023-07-13T04:50:28;2.42;;;1.27;;
26858;SDS011;14429;48.346;16.338;2023-07-13T04:52:54;1.30;;;1.10;;
26858;SDS011;14429;48.346;16.338;2023-07-13T04:55:19;1.77;;;1.50;;
26858;SDS011;14429;48.346;16.338;2023-07-13T04:57:45;2.08;;;1.30;;
26858;SDS011;14429;48.346;16.338;2023-07-13T05:00:12;1.40;;;0.80;;
26858;SDS011;14429;48.346;16.338;2023-07-13T05:02:39;3.55;;;1.50;;
26858;SDS011;14429;48.346;16.338;2023-07-13T05:05:05;2.75;;;1.33;;
26858;SDS011;14429;48.346;16.338;2023-07-13T05:07:31;1.83;;;1.23;;
26858;SDS011;14429;48.346;16.338;2023-07-13T05:09:57;2.22;;;0.93;;
26858;SDS011;14429;48.346;16.338;2023-07-13T05:12:22;1.55;;;1.08;;
26858;SDS011;14429;48.346;16.338;2023-07-13T05:14:48;2.08;;;1.30;;
26858;SDS011;14429;48.346;16.338;2023-07-13T05:17:13;2.13;;;1.20;;
26858;SDS011;14429;48.346;16.338;2023-07-13T05:19:40;2.70;;;1.20;;
26858;SDS011;14429;48.346;16.338;2023-07-13T05:22:05;1.20;;;1.10;;
26858;SDS011;14429;48.346;16.338;2023-07-13T05:24:31;2.20;;;1.10;;
26858;SDS011;14429;48.346;16.338;2023-07-13T05:26:56;2.58;;;0.98;;
26858;SDS011;14429;48.346;16.338;2023-07-13T05:29:22;1.08;;;0.90;;
26858;SDS011;14429;48.346;16.338;2023-07-13T05:31:48;1.40;;;1.02;;
26858;SDS011;14429;48.346;16.338;2023-07-13T05:34:14;0.90;;;0.88;;
26858;SDS011;14429;48.346;16.338;2023-07-13T05:36:41;0.93;;;0.82;;
26858;SDS011;14429;48.346;16.338;2023-07-13T05:39:06;1.30;;;0.85;;
26858;SDS011;14429;48.346;16.338;2023-07-13T05:41:32;1.63;;;1.13;;
26858;SDS011;14429;48.346;16.338;2023-07-13T05:43:57;0.93;;;0.90;;
26858;SDS011;14429;48.346;16.338;2023-07-13T05:46:22;1.05;;;0.90;;
26858;SDS011;14429;48.346;16.338;2023-07-13T05:48:48;1.40;;;1.00;;
26858;SDS011;14429;48.346;16.338;2023-07-13T05:51:13;2.53;;;0.85;;
26858;SDS011;14429;48.346;16.338;2023-07-13T05:53:40;1.90;;;1.02;;
26858;SDS011;14429;48.346;16.338;2023-07-13T05:56:06;0.98;;;0.75;;
26858;SDS011;14429;48.346;16.338;2023-07-13T05:58:31;1.67;;;1.08;;
26858;SDS011;14429;48.346;16.338;2023-07-13T06:01:00;1.63;;;1.17;;
26858;SDS011;14429;48.346;16.338;2023-07-13T06:03:27;1.13;;;1.02;;
26858;SDS011;14429;48.346;16.338;2023-07-13T06:05:52;2.03;;;0.98;;
26858;SDS011;14429;48.346;16.338;2023-07-13T06:08:18;1.33;;;1.05;;
26858;SDS011;14429;48.346;16.338;2023-07-13T06:10:44;1.20;;;0.70;;
26858;SDS011;14429;48.346;16.338;2023-07-13T06:13:10;1.48;;;0.90;;
26858;SDS011;14429;48.346;16.338;2023-07-13T06:15:35;1.35;;;1.05;;
26858;SDS011;14429;48.346;16.338;2023-07-13T06:18:00;1.80;;;1.55;;
26858;SDS011;14429;48.346;16.338;2023-07-13T06:20:26;3.75;;;1.30;;
26858;SDS011;14429;48.346;16.338;2023-07-13T06:22:51;1.00;;;0.90;;
26858;SDS011;14429;48.346;16.338;2023-07-13T06:25:17;2.10;;;1.17;;
26858;SDS011;14429;48.346;16.338;2023-07-13T06:27:44;1.20;;;1.00;;
26858;SDS011;14429;48.346;16.338;2023-07-13T06:30:10;2.08;;;1.20;;
26858;SDS011;14429;48.346;16.338;2023-07-13T06:32:36;2.22;;;1.10;;
26858;SDS011;14429;48.346;16.338;2023-07-13T06:35:02;1.35;;;1.20;;
26858;SDS011;14429;48.346;16.338;2023-07-13T06:37:27;0.95;;;0.88;;
26858;SDS011;14429;48.346;16.338;2023-07-13T06:39:53;3.22;;;0.77;;
26858;SDS011;14429;48.346;16.338;2023-07-13T06:42:18;2.00;;;0.90;;
26858;SDS011;14429;48.346;16.338;2023-07-13T06:44:45;4.07;;;0.80;;
26858;SDS011;14429;48.346;16.338;2023-07-13T06:47:10;1.88;;;1.00;;
26858;SDS011;14429;48.346;16.338;2023-07-13T06:49:36;1.63;;;1.08;;
26858;SDS011;14429;48.346;16.338;2023-07-13T06:52:01;1.15;;;1.00;;
26858;SDS011;14429;48.346;16.338;2023-07-13T06:54:27;0.57;;;0.55;;
26858;SDS011;14429;48.346;16.338;2023-07-13T06:56:52;1.13;;;0.90;;
26858;SDS011;14429;48.346;16.338;2023-07-13T06:59:18;1.95;;;1.02;;
26858;SDS011;14429;48.346;16.338;2023-07-13T07:01:45;1.88;;;0.93;;
26858;SDS011;14429;48.346;16.338;2023-07-13T07:04:10;1.20;;;0.80;;
26858;SDS011;14429;48.346;16.338;2023-07-13T07:06:36;2.15;;;1.10;;
26858;SDS011;14429;48.346;16.338;2023-07-13T07:09:01;3.58;;;1.48;;
26858;SDS011;14429;48.346;16.338;2023-07-13T07:11:26;1.23;;;0.98;;
26858;SDS011;14429;48.346;16.338;2023-07-13T07:13:52;3.42;;;1.00;;
26858;SDS011;14429;48.346;16.338;2023-07-13T07:16:18;1.00;;;0.90;;
26858;SDS011;14429;48.346;16.338;2023-07-13T07:18:45;2.03;;;1.00;;
26858;SDS011;14429;48.346;16.338;2023-07-13T07:21:11;1.30;;;0.93;;
26858;SDS011;14429;48.346;16.338;2023-07-13T07:23:38;0.90;;;0.90;;
26858;SDS011;14429;48.346;16.338;2023-07-13T07:26:03;4.00;;;1.02;;
26858;SDS011;14429;48.346;16.338;2023-07-13T07:28:29;2.15;;;1.02;;
26858;SDS011;14429;48.346;16.338;2023-07-13T07:30:55;1.67;;;0.98;;
26858;SDS011;14429;48.346;16.338;2023-07-13T07:33:21;0.95;;;0.88;;
26858;SDS011;14429;48.346;16.338;2023-07-13T07:35:48;0.60;;;0.60;;
26858;SDS011;14429;48.346;16.338;2023-07-13T07:38:14;1.13;;;0.98;;
26858;SDS011;14429;48.346;16.338;2023-07-13T07:40:40;1.70;;;1.30;;
26858;SDS011;14429;48.346;16.338;2023-07-13T07:43:06;1.70;;;1.10;;
26858;SDS011;14429;48.346;16.338;2023-07-13T07:45:31;2.15;;;1.20;;
26858;SDS011;14429;48.346;16.338;2023-07-13T07:47:57;2.15;;;1.02;;
26858;SDS011;14429;48.346;16.338;2023-07-13T07:50:22;3.47;;;0.98;;
26858;SDS011;14429;48.346;16.338;2023-07-13T07:52:49;1.85;;;1.00;;
26858;SDS011;14429;48.346;16.338;2023-07-13T07:55:14;2.88;;;0.95;;
26858;SDS011;14429;48.346;16.338;2023-07-13T07:57:40;1.65;;;1.23;;
26858;SDS011;14429;48.346;16.338;2023-07-13T08:00:06;1.33;;;0.98;;
26858;SDS011;14429;48.346;16.338;2023-07-13T08:02:32;1.65;;;0.98;;
26858;SDS011;14429;48.346;16.338;2023-07-13T08:04:58;1.23;;;0.90;;
26858;SDS011;14429;48.346;16.338;2023-07-13T08:07:23;1.38;;;0.93;;
26858;SDS011;14429;48.346;16.338;2023-07-13T08:09:53;1.13;;;0.82;;
26858;SDS011;14429;48.346;16.338;2023-07-13T08:12:18;1.95;;;0.80;;
26858;SDS011;14429;48.346;16.338;2023-07-13T08:14:44;2.05;;;1.33;;
26858;SDS011;14429;48.346;16.338;2023-07-13T08:17:09;1.27;;;0.95;;
26858;SDS011;14429;48.346;16.338;2023-07-13T08:19:34;0.95;;;0.95;;
26858;SDS011;14429;48.346;16.338;2023-07-13T08:22:00;2.35;;;1.00;;
26858;SDS011;14429;48.346;16.338;2023-07-13T08:24:25;1.88;;;1.35;;
26858;SDS011;14429;48.346;16.338;2023-07-13T08:26:52;2.03;;;1.10;;
26858;SDS011;14429;48.346;16.338;2023-07-13T08:29:18;1.17;;;0.88;;
26858;SDS011;14429;48.346;16.338;2023-07-13T08:31:43;1.35;;;0.80;;
26858;SDS011;14429;48.346;16.338;2023-07-13T08:34:09;1.90;;;1.00;;
26858;SDS011;14429;48.346;16.338;2023-07-13T08:36:34;0.95;;;0.85;;
26858;SDS011;14429;48.346;16.338;2023-07-13T08:39:00;6.20;;;1.17;;
26858;SDS011;14429;48.346;16.338;2023-07-13T08:41:25;0.95;;;0.80;;
26858;SDS011;14429;48.346;16.338;2023-07-13T08:43:55;0.73;;;0.73;;
26858;SDS011;14429;48.346;16.338;2023-07-13T08:46:24;1.30;;;0.88;;
26858;SDS011;14429;48.346;16.338;2023-07-13T08:48:54;1.27;;;1.00;;
26858;SDS011;14429;48.346;16.338;2023-07-13T08:51:24;1.02;;;0.85;;
26858;SDS011;14429;48.346;16.338;2023-07-13T08:53:58;1.23;;;1.13;;
26858;SDS011;14429;48.346;16.338;2023-07-13T08:56:27;1.92;;;1.30;;
26858;SDS011;14429;48.346;16.338;2023-07-13T08:58:56;1.02;;;0.80;;
26858;SDS011;14429;48.346;16.338;2023-07-13T09:01:28;2.25;;;1.08;;
26858;SDS011;14429;48.346;16.338;2023-07-13T09:03:59;1.80;;;1.10;;
26858;SDS011;14429;48.346;16.338;2023-07-13T09:06:31;1.23;;;0.73;;
26858;SDS011;14429;48.346;16.338;2023-07-13T09:09:06;2.10;;;0.95;;
26858;SDS011;14429;48.346;16.338;2023-07-13T09:11:38;2.03;;;1.08;;
26858;SDS011;14429;48.346;16.338;2023-07-13T09:14:19;1.15;;;1.05;;
26858;SDS011;14429;48.346;16.338;2023-07-13T09:16:57;1.00;;;0.90;;
26858;SDS011;14429;48.346;16.338;2023-07-13T09:19:25;1.42;;;0.90;;
26858;SDS011;14429;48.346;16.338;2023-07-13T09:21:55;1.42;;;0.93;;
26858;SDS011;14429;48.346;16.338;2023-07-13T09:24:35;1.23;;;1.00;;
26858;SDS011;14429;48.346;16.338;2023-07-13T09:27:02;2.40;;;1.33;;
26858;SDS011;14429;48.346;16.338;2023-07-13T09:29:38;2.78;;;1.30;;
26858;SDS011;14429;48.346;16.338;2023-07-13T09:32:09;3.45;;;1.48;;
26858;SDS011;14429;48.346;16.338;2023-07-13T09:34:38;2.90;;;1.23;;
26858;SDS011;14429;48.346;16.338;2023-07-13T09:37:04;1.13;;;1.00;;
26858;SDS011;14429;48.346;16.338;2023-07-13T09:39:30;0.98;;;0.90;;
26858;SDS011;14429;48.346;16.338;2023-07-13T09:42:00;2.38;;;1.80;;
26858;SDS011;14429;48.346;16.338;2023-07-13T09:44:29;1.92;;;1.52;;
26858;SDS011;14429;48.346;16.338;2023-07-13T09:46:57;1.52;;;1.20;;
26858;SDS011;14429;48.346;16.338;2023-07-13T09:49:24;2.67;;;1.90;;
26858;SDS011;14429;48.346;16.338;2023-07-13T09:51:49;5.75;;;1.42;;
26858;SDS011;14429;48.346;16.338;2023-07-13T09:54:24;2.87;;;2.30;;
26858;SDS011;14429;48.346;16.338;2023-07-13T09:56:53;2.40;;;1.27;;
26858;SDS011;14429;48.346;16.338;2023-07-13T09:59:19;1.75;;;1.52;;
26858;SDS011;14429;48.346;16.338;2023-07-13T10:01:46;2.20;;;1.45;;
26858;SDS011;14429;48.346;16.338;2023-07-13T10:04:13;1.98;;;1.77;;
26858;SDS011;14429;48.346;16.338;2023-07-13T10:06:41;2.30;;;1.55;;
26858;SDS011;14429;48.346;16.338;2023-07-13T10:09:07;4.60;;;2.05;;
26858;SDS011;14429;48.346;16.338;2023-07-13T10:11:34;2.13;;;1.60;;
26858;SDS011;14429;48.346;16.338;2023-07-13T10:14:01;1.40;;;1.30;;
26858;SDS011;14429;48.346;16.338;2023-07-13T10:16:28;2.08;;;1.60;;
26858;SDS011;14429;48.346;16.338;2023-07-13T10:18:57;1.95;;;1.70;;
26858;SDS011;14429;48.346;16.338;2023-07-13T10:21:27;2.83;;;2.03;;
26858;SDS011;14429;48.346;16.338;2023-07-13T10:23:57;1.85;;;1.63;;
26858;SDS011;14429;48.346;16.338;2023-07-13T10:26:31;1.97;;;1.50;;
26858;SDS011;14429;48.346;16.338;2023-07-13T10:29:00;4.97;;;1.75;;
26858;SDS011;14429;48.346;16.338;2023-07-13T10:31:29;2.03;;;1.77;;
26858;SDS011;14429;48.346;16.338;2023-07-13T10:33:55;2.40;;;1.90;;
26858;SDS011;14429;48.346;16.338;2023-07-13T10:36:27;4.35;;;2.53;;
26858;SDS011;14429;48.346;16.338;2023-07-13T10:38:58;4.18;;;1.80;;
26858;SDS011;14429;48.346;16.338;2023-07-13T10:41:26;2.00;;;1.65;;
26858;SDS011;14429;48.346;16.338;2023-07-13T10:43:55;2.95;;;1.70;;
26858;SDS011;14429;48.346;16.338;2023-07-13T10:46:22;3.42;;;2.22;;
26858;SDS011;14429;48.346;16.338;2023-07-13T10:48:51;2.45;;;1.90;;
26858;SDS011;14429;48.346;16.338;2023-07-13T10:51:19;1.98;;;1.58;;
26858;SDS011;14429;48.346;16.338;2023-07-13T10:53:46;2.33;;;1.83;;
26858;SDS011;14429;48.346;16.338;2023-07-13T10:56:19;2.58;;;1.83;;
26858;SDS011;14429;48.346;16.338;2023-07-13T10:58:48;2.22;;;1.65;;
26858;SDS011;14429;48.346;16.338;2023-07-13T11:01:27;2.58;;;1.60;;
26858;SDS011;14429;48.346;16.338;2023-07-13T11:04:05;2.60;;;1.85;;
26858;SDS011;14429;48.346;16.338;2023-07-13T11:06:37;2.13;;;1.83;;
26858;SDS011;14429;48.346;16.338;2023-07-13T11:09:19;3.80;;;2.22;;
26858;SDS011;14429;48.346;16.338;2023-07-13T11:11:56;2.03;;;1.80;;
26858;SDS011;14429;48.346;16.338;2023-07-13T11:14:28;2.72;;;1.95;;
26858;SDS011;14429;48.346;16.338;2023-07-13T11:16:56;5.55;;;2.80;;
26858;SDS011;14429;48.346;16.338;2023-07-13T11:22:15;2.80;;;1.75;;
26858;SDS011;14429;48.346;16.338;2023-07-13T11:24:56;3.75;;;2.38;;
26858;SDS011;14429;48.346;16.338;2023-07-13T11:27:28;2.47;;;2.28;;
26858;SDS011;14429;48.346;16.338;2023-07-13T11:30:07;3.30;;;1.88;;
26858;SDS011;14429;48.346;16.338;2023-07-13T11:32:50;3.28;;;2.00;;
26858;SDS011;14429;48.346;16.338;2023-07-13T11:35:17;2.03;;;1.83;;
26858;SDS011;14429;48.346;16.338;2023-07-13T11:37:47;2.50;;;1.83;;
26858;SDS011;14429;48.346;16.338;2023-07-13T11:40:14;2.83;;;1.88;;
26858;SDS011;14429;48.346;16.338;2023-07-13T11:42:40;2.30;;;1.98;;
26858;SDS011;14429;48.346;16.338;2023-07-13T11:45:14;2.50;;;2.20;;
26858;SDS011;14429;48.346;16.338;2023-07-13T11:47:45;3.42;;;2.22;;
26858;SDS011;14429;48.346;16.338;2023-07-13T11:50:16;2.17;;;1.73;;
26858;SDS011;14429;48.346;16.338;2023-07-13T11:52:43;4.55;;;2.47;;
26858;SDS011;14429;48.346;16.338;2023-07-13T11:55:13;3.90;;;2.08;;
26858;SDS011;14429;48.346;16.338;2023-07-13T11:57:44;2.03;;;1.83;;
26858;SDS011;14429;48.346;16.338;2023-07-13T12:00:15;2.03;;;1.83;;
26858;SDS011;14429;48.346;16.338;2023-07-13T12:02:45;2.63;;;1.73;;
26858;SDS011;14429;48.346;16.338;2023-07-13T12:05:13;4.07;;;2.05;;
26858;SDS011;14429;48.346;16.338;2023-07-13T12:07:40;3.35;;;1.83;;
26858;SDS011;14429;48.346;16.338;2023-07-13T12:10:13;1.90;;;1.65;;
26858;SDS011;14429;48.346;16.338;2023-07-13T12:12:46;6.63;;;3.05;;
26858;SDS011;14429;48.346;16.338;2023-07-13T12:15:12;2.65;;;1.73;;
26858;SDS011;14429;48.346;16.338;2023-07-13T12:17:38;4.63;;;1.95;;
26858;SDS011;14429;48.346;16.338;2023-07-13T12:20:04;3.58;;;2.45;;
26858;SDS011;14429;48.346;16.338;2023-07-13T12:22:45;3.50;;;2.17;;
26858;SDS011;14429;48.346;16.338;2023-07-13T12:25:11;7.15;;;2.20;;
26858;SDS011;14429;48.346;16.338;2023-07-13T12:27:38;3.15;;;1.88;;
26858;SDS011;14429;48.346;16.338;2023-07-13T12:30:05;4.07;;;2.38;;
26858;SDS011;14429;48.346;16.338;2023-07-13T12:32:56;3.50;;;2.30;;
26858;SDS011;14429;48.346;16.338;2023-07-13T12:35:24;3.00;;;1.92;;
26858;SDS011;14429;48.346;16.338;2023-07-13T12:37:53;2.20;;;1.77;;
26858;SDS011;14429;48.346;16.338;2023-07-13T12:40:19;3.72;;;1.95;;
26858;SDS011;14429;48.346;16.338;2023-07-13T12:42:47;3.28;;;2.20;;
26858;SDS011;14429;48.346;16.338;2023-07-13T12:45:17;4.97;;;2.00;;
26858;SDS011;14429;48.346;16.338;2023-07-13T12:47:48;1.73;;;1.63;;
26858;SDS011;14429;48.346;16.338;2023-07-13T12:50:16;3.78;;;2.25;;
26858;SDS011;14429;48.346;16.338;2023-07-13T12:52:43;3.30;;;1.83;;
26858;SDS011;14429;48.346;16.338;2023-07-13T12:55:11;3.78;;;1.90;;
26858;SDS011;14429;48.346;16.338;2023-07-13T12:57:39;2.88;;;2.42;;
26858;SDS011;14429;48.346;16.338;2023-07-13T13:00:11;3.25;;;2.25;;
26858;SDS011;14429;48.346;16.338;2023-07-13T13:02:48;1.77;;;1.67;;
26858;SDS011;14429;48.346;16.338;2023-07-13T13:05:15;5.18;;;1.90;;
26858;SDS011;14429;48.346;16.338;2023-07-13T13:07:40;3.08;;;2.13;;
26858;SDS011;14429;48.346;16.338;2023-07-13T13:10:10;2.60;;;2.28;;
26858;SDS011;14429;48.346;16.338;2023-07-13T13:12:37;3.53;;;2.15;;
26858;SDS011;14429;48.346;16.338;2023-07-13T13:15:02;2.70;;;1.90;;
26858;SDS011;14429;48.346;16.338;2023-07-13T13:17:30;2.47;;;1.90;;
26858;SDS011;14429;48.346;16.338;2023-07-13T13:19:56;2.85;;;1.98;;
26858;SDS011;14429;48.346;16.338;2023-07-13T13:22:21;3.15;;;2.03;;
26858;SDS011;14429;48.346;16.338;2023-07-13T13:24:47;2.05;;;1.50;;
26858;SDS011;14429;48.346;16.338;2023-07-13T13:27:14;2.70;;;1.75;;
26858;SDS011;14429;48.346;16.338;2023-07-13T13:29:41;4.32;;;2.15;;
26858;SDS011;14429;48.346;16.338;2023-07-13T13:32:09;2.35;;;1.90;;
26858;SDS011;14429;48.346;16.338;2023-07-13T13:34:38;2.80;;;2.28;;
26858;SDS011;14429;48.346;16.338;2023-07-13T13:37:03;3.53;;;1.67;;
26858;SDS011;14429;48.346;16.338;2023-07-13T13:39:40;5.30;;;2.22;;
26858;SDS011;14429;48.346;16.338;2023-07-13T13:42:08;2.55;;;1.88;;
26858;SDS011;14429;48.346;16.338;2023-07-13T13:44:34;5.10;;;2.05;;
26858;SDS011;14429;48.346;16.338;2023-07-13T13:47:00;2.10;;;1.60;;
26858;SDS011;14429;48.346;16.338;2023-07-13T13:49:26;2.55;;;1.95;;
26858;SDS011;14429;48.346;16.338;2023-07-13T13:51:54;2.65;;;1.63;;
26858;SDS011;14429;48.346;16.338;2023-07-13T13:54:20;2.10;;;1.80;;
26858;SDS011;14429;48.346;16.338;2023-07-13T13:56:47;3.40;;;1.92;;
26858;SDS011;14429;48.346;16.338;2023-07-13T13:59:14;2.58;;;1.80;;
26858;SDS011;14429;48.346;16.338;2023-07-13T14:01:40;1.90;;;1.63;;
26858;SDS011;14429;48.346;16.338;2023-07-13T14:04:08;2.42;;;1.70;;
26858;SDS011;14429;48.346;16.338;2023-07-13T14:06:39;2.38;;;1.88;;
26858;SDS011;14429;48.346;16.338;2023-07-13T14:09:08;4.88;;;2.10;;
26858;SDS011;14429;48.346;16.338;2023-07-13T14:11:36;2.10;;;1.80;;
26858;SDS011;14429;48.346;16.338;2023-07-13T14:14:01;2.58;;;2.10;;
26858;SDS011;14429;48.346;16.338;2023-07-13T14:16:28;2.08;;;1.80;;
26858;SDS011;14429;48.346;16.338;2023-07-13T14:18:55;2.78;;;1.67;;
26858;SDS011;14429;48.346;16.338;2023-07-13T14:21:21;4.90;;;2.30;;
26858;SDS011;14429;48.346;16.338;2023-07-13T14:23:47;2.47;;;1.73;;
26858;SDS011;14429;48.346;16.338;2023-07-13T14:26:16;3.22;;;2.10;;
26858;SDS011;14429;48.346;16.338;2023-07-13T14:28:44;2.65;;;2.00;;
26858;SDS011;14429;48.346;16.338;2023-07-13T14:31:12;5.18;;;2.10;;
26858;SDS011;14429;48.346;16.338;2023-07-13T14:33:38;3.92;;;2.50;;
26858;SDS011;14429;48.346;16.338;2023-07-13T14:36:22;3.13;;;2.00;;